Time;durP1;ratioP1;P1;durP2;ratioP2;P2;SDS_P1;SDS_P2;PMS_P1;PMS_P2;Temp;Humidity;BMP_temperature;BMP_pressure;BME280_temperature;BME280_humidity;BME280_pressure;Samples;Min_cycle;Max_cycle;Signal;HPM_P1;HPM_P2
2021/12/09 00:00:37;;;;;;;;;;;;;;;-142.21;100.00;66915.31;5062393;28;1363;-84
2021/12/09 00:03:06;;;;;;;;;;;;;;;-142.21;100.00;66915.31;5062725;28;1285;-84
2021/12/09 00:05:32;;;;;;;;;;;;;;;-142.21;100.00;66915.31;5064163;28;876;-84
2021/12/09 00:07:57;;;;;;;;;;;;;;;-142.21;100.00;66915.31;5062818;28;1558;-83
2021/12/09 00:10:22;;;;;;;;;;;;;;;-142.21;100.00;66915.31;5064027;28;867;-83
2021/12/09 00:12:48;;;;;;;;;;;;;;;-142.21;100.00;66915.31;5062732;28;1902;-83
2021/12/09 00:15:13;;;;;;;;;;;;;;;-142.21;100.00;66915.31;5062825;28;1597;-84
2021/12/09 00:17:38;;;;;;;;;;;;;;;-142.21;100.00;66915.31;5062337;28;1373;-82
2021/12/09 00:20:04;;;;;;;;;;;;;;;-142.21;100.00;66915.31;5064630;28;801;-83
2021/12/09 00:22:29;;;;;;;;;;;;;;;-142.21;100.00;66915.31;5063871;28;1320;-82
2021/12/09 00:24:54;;;;;;;;;;;;;;;-142.21;100.00;66915.31;5063087;28;1020;-83
2021/12/09 00:27:19;;;;;;;;;;;;;;;-142.21;100.00;66915.31;5066703;28;1659;-83
2021/12/09 00:29:45;;;;;;;;;;;;;;;-142.21;100.00;66915.31;5063074;28;1270;-83
2021/12/09 00:32:10;;;;;;;;;;;;;;;-142.21;100.00;66915.31;5064708;28;904;-83
2021/12/09 00:34:37;;;;;;;;;;;;;;;-142.21;100.00;66915.31;5062629;28;1893;-82
2021/12/09 00:37:33;;;;;;;;;;;;;;;-142.21;100.00;66915.31;5064279;28;1459;-83
2021/12/09 00:39:52;;;;;;;;;;;;;;;-142.21;100.00;66915.31;5065341;28;1065;-83
2021/12/09 00:42:21;;;;;;;;;;;;;;;-142.21;100.00;66915.31;5065181;28;1230;-83
2021/12/09 00:44:47;;;;;;;;;;;;;;;-142.21;100.00;66915.31;5065785;28;1703;-85
2021/12/09 00:47:12;;;;;;;;;;;;;;;-142.21;100.00;66915.31;5065291;28;1133;-84
2021/12/09 00:49:37;;;;;;;;;;;;;;;-142.21;100.00;66915.31;5061837;28;1322;-83
2021/12/09 00:52:03;;;;;;;;;;;;;;;-142.21;100.00;66915.31;5057519;28;1332;-84
2021/12/09 00:54:28;;;;;;;;;;;;;;;-142.21;100.00;66915.31;5065936;28;2248;-86
2021/12/09 00:56:53;;;;;;;;;;;;;;;-142.21;100.00;66915.31;5061825;28;1615;-84
2021/12/09 00:59:19;;;;;;;;;;;;;;;-142.21;100.00;66915.31;5080218;28;1634;-84
2021/12/09 01:01:44;;;;;;;;;;;;;;;-142.21;100.00;66915.31;5065887;28;1753;-83
2021/12/09 01:04:09;;;;;;;;;;;;;;;-142.21;100.00;66915.31;5072287;28;1736;-83
2021/12/09 01:06:34;;;;;;;;;;;;;;;-142.21;100.00;66915.31;5066450;28;1249;-84
2021/12/09 01:08:59;;;;;;;;;;;;;;;-142.21;100.00;66915.31;5083179;28;1370;-83
2021/12/09 01:11:25;;;;;;;;;;;;;;;-142.21;100.00;66915.31;5069571;28;1627;-84
2021/12/09 01:13:50;;;;;;;;;;;;;;;-142.21;100.00;66915.31;5083617;28;1944;-83
2021/12/09 01:16:15;;;;;;;;;;;;;;;-142.21;100.00;66915.31;5068651;28;1161;-84
2021/12/09 01:18:41;;;;;;;;;;;;;;;-142.21;100.00;66915.31;5069878;28;1291;-85
2021/12/09 01:21:07;;;;;;;;;;;;;;;-142.21;100.00;66915.31;5069718;28;1291;-84
2021/12/09 01:23:32;;;;;;;;;;;;;;;-142.21;100.00;66915.31;5070857;28;1359;-85
2021/12/09 01:26:03;;;;;;;;;;;;;;;-142.21;100.00;66915.31;5067949;28;1413;-84
2021/12/09 01:28:32;;;;;;;;;;;;;;;-142.21;100.00;66915.31;5059607;28;1340;-82
2021/12/09 01:31:03;;;;;;;;;;;;;;;-142.21;100.00;66915.31;5062981;28;1212;-84
2021/12/09 01:33:29;;;;;;;;;;;;;;;-142.21;100.00;66915.31;5059076;28;1906;-83
2021/12/09 01:35:54;;;;;;;;;;;;;;;-142.21;100.00;66915.31;5061462;28;1227;-83
2021/12/09 01:38:19;;;;;;;;;;;;;;;-142.21;100.00;66915.31;5063093;28;1612;-83
2021/12/09 01:40:45;;;;;;;;;;;;;;;-142.21;100.00;66915.31;5062658;28;1458;-83
2021/12/09 01:43:11;;;;;;;;;;;;;;;-142.21;100.00;66915.31;5059336;28;1326;-83
2021/12/09 01:45:37;;;;;;;;;;;;;;;-142.21;100.00;66915.31;5061556;28;1276;-83
2021/12/09 01:48:02;;;;;;;;;;;;;;;-142.21;100.00;66915.31;5060808;28;1696;-85
2021/12/09 01:50:28;;;;;;;;;;;;;;;-142.21;100.00;66915.31;5078141;28;1227;-84
2021/12/09 01:52:53;;;;;;;;;;;;;;;-142.21;100.00;66915.31;5062188;28;1939;-82
2021/12/09 01:55:19;;;;;;;;;;;;;;;-142.21;100.00;66915.31;5060451;28;1239;-84
2021/12/09 01:57:46;;;;;;;;;;;;;;;-142.21;100.00;66915.31;5060966;28;1680;-83
2021/12/09 02:00:13;;;;;;;;;;;;;;;-142.21;100.00;66915.31;5061349;28;1145;-83
2021/12/09 02:02:39;;;;;;;;;;;;;;;-142.21;100.00;66915.31;5061252;28;1185;-83
2021/12/09 02:05:05;;;;;;;;;;;;;;;-142.21;100.00;66915.31;5062343;28;1318;-84
2021/12/09 02:07:30;;;;;;;;;;;;;;;-142.21;100.00;66915.31;5061586;28;1395;-84
2021/12/09 02:09:55;;;;;;;;;;;;;;;-142.21;100.00;66915.31;5060424;28;1488;-83
2021/12/09 02:12:20;;;;;;;;;;;;;;;-142.21;100.00;66915.31;5061477;28;1957;-84
2021/12/09 02:14:47;;;;;;;;;;;;;;;-142.21;100.00;66915.31;5063786;28;1412;-83
2021/12/09 02:17:12;;;;;;;;;;;;;;;-142.21;100.00;66915.31;5063913;28;1332;-84
2021/12/09 02:19:41;;;;;;;;;;;;;;;-142.21;100.00;66915.31;5077853;28;1482;-83
2021/12/09 02:22:07;;;;;;;;;;;;;;;-142.21;100.00;66915.31;5045710;28;1322;-84
2021/12/09 02:24:32;;;;;;;;;;;;;;;-142.21;100.00;66915.31;5062714;28;1250;-84
2021/12/09 02:26:58;;;;;;;;;;;;;;;-142.21;100.00;66915.31;5061823;28;1176;-83
2021/12/09 02:29:23;;;;;;;;;;;;;;;-142.21;100.00;66915.31;5062506;28;1330;-83
2021/12/09 02:31:54;;;;;;;;;;;;;;;-142.21;100.00;66915.31;5063103;28;999;-84
2021/12/09 02:34:19;;;;;;;;;;;;;;;-142.21;100.00;66915.31;5079033;28;1913;-84
2021/12/09 02:36:44;;;;;;;;;;;;;;;-142.21;100.00;66915.31;5062425;28;1008;-83
2021/12/09 02:39:12;;;;;;;;;;;;;;;-142.21;100.00;66915.31;5062337;28;1677;-83
2021/12/09 02:41:39;;;;;;;;;;;;;;;-142.21;100.00;66915.31;5062753;28;1181;-83
2021/12/09 02:44:06;;;;;;;;;;;;;;;-142.21;100.00;66915.31;5063561;28;817;-83
2021/12/09 02:46:36;;;;;;;;;;;;;;;-142.21;100.00;66915.31;5061061;28;1661;-83
2021/12/09 02:49:02;;;;;;;;;;;;;;;-142.21;100.00;66915.31;5078580;28;1310;-83
2021/12/09 02:51:27;;;;;;;;;;;;;;;-142.21;100.00;66915.31;5062481;28;1645;-84
2021/12/09 02:53:52;;;;;;;;;;;;;;;-142.21;100.00;66915.31;5062046;28;1933;-83
2021/12/09 02:56:19;;;;;;;;;;;;;;;-142.21;100.00;66915.31;5061784;28;1302;-85
2021/12/09 02:58:44;;;;;;;;;;;;;;;-142.21;100.00;66915.31;5062339;28;1537;-83
2021/12/09 03:01:14;;;;;;;;;;;;;;;-142.21;100.00;66915.31;5065995;28;1050;-84
2021/12/09 03:03:49;;;;;;;;;;;;;;;-142.21;100.00;66915.31;5064192;28;1334;-84
2021/12/09 03:06:15;;;;;;;;;;;;;;;-142.21;100.00;66915.31;5062507;28;1315;-83
2021/12/09 03:08:42;;;;;;;;;;;;;;;-142.21;100.00;66915.31;5064915;28;1319;-84
2021/12/09 03:11:09;;;;;;;;;;;;;;;-142.21;100.00;66915.31;5062099;28;1362;-84
2021/12/09 03:13:35;;;;;;;;;;;;;;;-142.21;100.00;66915.31;5064519;28;1883;-85
2021/12/09 03:16:01;;;;;;;;;;;;;;;-142.21;100.00;66915.31;5063314;28;1548;-83
2021/12/09 03:18:26;;;;;;;;;;;;;;;-142.21;100.00;66915.31;5064043;28;1333;-85
2021/12/09 03:20:51;;;;;;;;;;;;;;;-142.21;100.00;66915.31;5062119;28;1436;-84
2021/12/09 03:23:16;;;;;;;;;;;;;;;-142.21;100.00;66915.31;5074591;28;1737;-83
2021/12/09 03:25:42;;;;;;;;;;;;;;;-142.21;100.00;66915.31;5063393;28;1227;-84
2021/12/09 03:28:07;;;;;;;;;;;;;;;-142.21;100.00;66915.31;5066375;28;1394;-84
2021/12/09 03:30:32;;;;;;;;;;;;;;;-142.21;100.00;66915.31;5067876;28;1477;-83
2021/12/09 03:32:57;;;;;;;;;;;;;;;-142.21;100.00;66915.31;5067092;28;1871;-84
2021/12/09 03:35:23;;;;;;;;;;;;;;;-142.21;100.00;66915.31;5066915;28;1522;-84
2021/12/09 03:37:49;;;;;;;;;;;;;;;-142.21;100.00;66915.31;5068297;28;1690;-85
2021/12/09 03:40:14;;;;;;;;;;;;;;;-142.21;100.00;66915.31;5066626;28;1537;-85
2021/12/09 03:42:40;;;;;;;;;;;;;;;-142.21;100.00;66915.31;5088352;28;1401;-84
2021/12/09 03:45:06;;;;;;;;;;;;;;;-142.21;100.00;66915.31;5072892;28;1003;-84
2021/12/09 03:47:31;;;;;;;;;;;;;;;-142.21;100.00;66915.31;5074073;28;1220;-85
2021/12/09 03:49:56;;;;;;;;;;;;;;;-142.21;100.00;66915.31;5072810;28;1514;-83
2021/12/09 03:52:21;;;;;;;;;;;;;;;-142.21;100.00;66915.31;5070088;28;1936;-83
2021/12/09 03:54:47;;;;;;;;;;;;;;;-142.21;100.00;66915.31;5060998;28;1231;-84
2021/12/09 03:57:13;;;;;;;;;;;;;;;-142.21;100.00;66915.31;5074527;28;1256;-84
2021/12/09 03:59:39;;;;;;;;;;;;;;;-142.21;100.00;66915.31;5060167;22;3775;-86
2021/12/09 04:02:05;;;;;;;;;;;;;;;-142.21;100.00;66915.31;4999037;28;1505;-85
2021/12/09 04:04:30;;;;;;;;;;;;;;;-142.21;100.00;66915.31;4984155;28;1276;-87
2021/12/09 04:06:55;;;;;;;;;;;;;;;-142.21;100.00;66915.31;4982769;28;1336;-86
2021/12/09 04:09:22;;;;;;;;;;;;;;;-142.21;100.00;66915.31;4998059;28;1582;-86
2021/12/09 04:11:47;;;;;;;;;;;;;;;-142.21;100.00;66915.31;4982188;28;1492;-85
2021/12/09 04:14:13;;;;;;;;;;;;;;;-142.21;100.00;66915.31;4982459;28;1918;-85
2021/12/09 04:16:38;;;;;;;;;;;;;;;-142.21;100.00;66915.31;4983170;28;1110;-86
2021/12/09 04:19:04;;;;;;;;;;;;;;;-142.21;100.00;66915.31;4982226;28;1508;-87
2021/12/09 04:21:29;;;;;;;;;;;;;;;-142.21;100.00;66915.31;4982750;28;1543;-87
2021/12/09 04:23:55;;;;;;;;;;;;;;;-142.21;100.00;66915.31;4998975;28;1256;-87
2021/12/09 04:26:20;;;;;;;;;;;;;;;-142.21;100.00;66915.31;5000754;28;1132;-86
2021/12/09 04:28:45;;;;;;;;;;;;;;;-142.21;100.00;66915.31;4989708;28;1646;-85
2021/12/09 04:31:10;;;;;;;;;;;;;;;-142.21;100.00;66915.31;4980670;28;1284;-87
2021/12/09 04:33:35;;;;;;;;;;;;;;;-142.21;100.00;66915.31;4980448;28;1898;-86
2021/12/09 04:36:01;;;;;;;;;;;;;;;-142.21;100.00;66915.31;4980300;28;1266;-87
2021/12/09 04:38:26;;;;;;;;;;;;;;;-142.21;100.00;66915.31;4978382;28;1489;-86
2021/12/09 04:40:51;;;;;;;;;;;;;;;-142.21;100.00;66915.31;4975554;28;1738;-87
2021/12/09 04:43:16;;;;;;;;;;;;;;;-142.21;100.00;66915.31;4989071;28;1384;-86
2021/12/09 04:45:42;;;;;;;;;;;;;;;-142.21;100.00;66915.31;4983237;28;1438;-85
2021/12/09 04:48:07;;;;;;;;;;;;;;;-142.21;100.00;66915.31;4992961;28;1204;-87
2021/12/09 04:50:33;;;;;;;;;;;;;;;-142.21;100.00;66915.31;4997413;28;1462;-86
2021/12/09 04:52:58;;;;;;;;;;;;;;;-142.21;100.00;66915.31;4980862;28;1902;-86
2021/12/09 04:55:24;;;;;;;;;;;;;;;-142.21;100.00;66915.31;4989782;28;1180;-86
2021/12/09 04:57:49;;;;;;;;;;;;;;;-142.21;100.00;66915.31;4979935;28;1448;-88
2021/12/09 05:00:16;;;;;;;;;;;;;;;-142.21;100.00;66915.31;4981076;28;1276;-85
2021/12/09 05:05:19;;;;;;;;;;;;;;;-142.21;100.00;66915.31;4982340;28;844;-85
2021/12/09 05:07:45;;;;;;;;;;;;;;;-142.21;100.00;66915.31;4980363;28;1164;-86
2021/12/09 05:10:10;;;;;;;;;;;;;;;-142.21;100.00;66915.31;4981139;28;1257;-86
2021/12/09 05:12:35;;;;;;;;;;;;;;;-142.21;100.00;66915.31;4979140;28;1878;-86
2021/12/09 05:15:01;;;;;;;;;;;;;;;-142.21;100.00;66915.31;4991192;28;1190;-86
2021/12/09 05:17:26;;;;;;;;;;;;;;;-142.21;100.00;66915.31;5000205;28;1211;-86
2021/12/09 05:19:51;;;;;;;;;;;;;;;-142.21;100.00;66915.31;4992514;28;1499;-86
2021/12/09 05:22:16;;;;;;;;;;;;;;;-142.21;100.00;66915.31;4995877;28;1755;-86
2021/12/09 05:24:43;;;;;;;;;;;;;;;-142.21;100.00;66915.31;4980352;28;1338;-86
2021/12/09 05:27:11;;;;;;;;;;;;;;;-142.21;100.00;66915.31;4997103;28;1519;-84
2021/12/09 05:29:39;;;;;;;;;;;;;;;-142.21;100.00;66915.31;4981606;28;1229;-86
2021/12/09 05:32:08;;;;;;;;;;;;;;;-142.21;100.00;66915.31;4979987;28;1456;-85
2021/12/09 05:34:36;;;;;;;;;;;;;;;-142.21;100.00;66915.31;4980416;28;1894;-85
2021/12/09 05:37:02;;;;;;;;;;;;;;;-142.21;100.00;66915.31;4977126;28;1520;-86
2021/12/09 05:39:27;;;;;;;;;;;;;;;-142.21;100.00;66915.31;4976680;28;1437;-86
2021/12/09 05:41:53;;;;;;;;;;;;;;;-142.21;100.00;66915.31;4979052;28;1177;-86
2021/12/09 05:44:19;;;;;;;;;;;;;;;-142.21;100.00;66915.31;4980609;28;1361;-86
2021/12/09 05:46:46;;;;;;;;;;;;;;;-142.21;100.00;66915.31;4979648;28;1547;-86
2021/12/09 05:49:12;;;;;;;;;;;;;;;-142.21;100.00;66915.31;4978969;28;1351;-85
2021/12/09 05:51:43;;;;;;;;;;;;;;;-142.21;100.00;66915.31;4977160;28;1512;-84
2021/12/09 05:54:09;;;;;;;;;;;;;;;-142.21;100.00;66915.31;4976417;28;1959;-86
2021/12/09 05:56:34;;;;;;;;;;;;;;;-142.21;100.00;66915.31;4980090;28;865;-86
2021/12/09 05:59:00;;;;;;;;;;;;;;;-142.21;100.00;66915.31;4980107;28;1267;-85
2021/12/09 06:01:25;;;;;;;;;;;;;;;-142.21;100.00;66915.31;4979501;28;1328;-85
2021/12/09 06:03:50;;;;;;;;;;;;;;;-142.21;100.00;66915.31;4979362;28;1646;-85
2021/12/09 06:06:16;;;;;;;;;;;;;;;-142.21;100.00;66915.31;4978930;28;1047;-86
2021/12/09 06:08:41;;;;;;;;;;;;;;;-142.21;100.00;66915.31;4978035;28;1467;-86
2021/12/09 06:11:07;;;;;;;;;;;;;;;-142.21;100.00;66915.31;4978229;28;1174;-87
2021/12/09 06:13:33;;;;;;;;;;;;;;;-142.21;100.00;66915.31;4976460;28;1906;-87
2021/12/09 06:15:59;;;;;;;;;;;;;;;-142.21;100.00;66915.31;4979099;28;1524;-86
2021/12/09 06:18:24;;;;;;;;;;;;;;;-142.21;100.00;66915.31;4978462;28;1397;-86
2021/12/09 06:20:49;;;;;;;;;;;;;;;-142.21;100.00;66915.31;4978602;28;1354;-86
2021/12/09 06:23:14;;;;;;;;;;;;;;;-142.21;100.00;66915.31;4978451;28;818;-86
2021/12/09 06:25:40;;;;;;;;;;;;;;;-142.21;100.00;66915.31;4976076;28;961;-86
2021/12/09 06:28:05;;;;;;;;;;;;;;;-142.21;100.00;66915.31;4975594;28;1279;-86
2021/12/09 06:30:31;;;;;;;;;;;;;;;-142.21;100.00;66915.31;4975482;28;1212;-86
2021/12/09 06:32:56;;;;;;;;;;;;;;;-142.21;100.00;66915.31;4976889;28;1958;-86
2021/12/09 06:35:21;;;;;;;;;;;;;;;-142.21;100.00;66915.31;4977105;28;884;-86
2021/12/09 06:37:48;;;;;;;;;;;;;;;-142.21;100.00;66915.31;4978048;28;1063;-86
2021/12/09 06:40:14;;;;;;;;;;;;;;;-142.21;100.00;66915.31;4978195;28;1300;-86
2021/12/09 06:42:41;;;;;;;;;;;;;;;-142.21;100.00;66915.31;4977889;28;1280;-86
2021/12/09 06:45:06;;;;;;;;;;;;;;;-142.21;100.00;66915.31;4979112;28;1340;-86
2021/12/09 06:47:31;;;;;;;;;;;;;;;-142.21;100.00;66915.31;4980563;28;1158;-86
2021/12/09 06:49:57;;;;;;;;;;;;;;;-142.21;100.00;66915.31;4978265;28;1386;-86
2021/12/09 06:52:22;;;;;;;;;;;;;;;-142.21;100.00;66915.31;4980436;28;870;-85
2021/12/09 06:54:47;;;;;;;;;;;;;;;-142.21;100.00;66915.31;4979455;28;1886;-85
2021/12/09 06:57:12;;;;;;;;;;;;;;;-142.21;100.00;66915.31;4977865;28;834;-86
2021/12/09 06:59:37;;;;;;;;;;;;;;;-142.21;100.00;66915.31;4977179;28;1334;-85
2021/12/09 07:02:03;;;;;;;;;;;;;;;-142.21;100.00;66915.31;4978236;28;849;-85
2021/12/09 07:04:28;;;;;;;;;;;;;;;-142.21;100.00;66915.31;4978032;28;1280;-85
2021/12/09 07:06:53;;;;;;;;;;;;;;;-142.21;100.00;66915.31;4977836;28;1391;-86
2021/12/09 07:09:18;;;;;;;;;;;;;;;-142.21;100.00;66915.31;4977328;28;1281;-85
2021/12/09 07:11:48;;;;;;;;;;;;;;;-142.21;100.00;66915.31;4979030;28;814;-85
2021/12/09 07:14:13;;;;;;;;;;;;;;;-142.21;100.00;66915.31;4976597;28;1898;-86
2021/12/09 07:16:38;;;;;;;;;;;;;;;-142.21;100.00;66915.31;4961124;28;865;-85
2021/12/09 07:19:03;;;;;;;;;;;;;;;-142.21;100.00;66915.31;4958513;28;1230;-86
2021/12/09 07:21:28;;;;;;;;;;;;;;;-142.21;100.00;66915.31;4959424;29;1357;-86
2021/12/09 07:23:53;;;;;;;;;;;;;;;-142.21;100.00;66915.31;4959207;29;1088;-86
2021/12/09 07:26:19;;;;;;;;;;;;;;;-142.21;100.00;66915.31;4960125;28;810;-86
2021/12/09 07:28:44;;;;;;;;;;;;;;;-142.21;100.00;66915.31;4958887;28;1094;-86
2021/12/09 07:31:09;;;;;;;;;;;;;;;-142.21;100.00;66915.31;4958235;28;1186;-85
2021/12/09 07:33:34;;;;;;;;;;;;;;;-142.21;100.00;66915.31;4972793;28;1886;-84
2021/12/09 07:36:00;;;;;;;;;;;;;;;-142.21;100.00;66915.31;4958560;28;839;-85
2021/12/09 07:38:26;;;;;;;;;;;;;;;-142.21;100.00;66915.31;4958374;28;881;-85
2021/12/09 07:40:51;;;;;;;;;;;;;;;-142.21;100.00;66915.31;4957271;28;1521;-86
2021/12/09 07:43:16;;;;;;;;;;;;;;;-142.21;100.00;66915.31;4973790;28;1279;-85
2021/12/09 07:45:42;;;;;;;;;;;;;;;-142.21;100.00;66915.31;4957778;28;1204;-85
2021/12/09 07:48:07;;;;;;;;;;;;;;;-142.21;100.00;66915.31;4959526;28;1028;-86
2021/12/09 07:50:33;;;;;;;;;;;;;;;-142.21;100.00;66915.31;4957304;28;1294;-84
2021/12/09 07:52:58;;;;;;;;;;;;;;;-142.21;100.00;66915.31;4956119;29;1898;-85
2021/12/09 07:55:24;;;;;;;;;;;;;;;-142.21;100.00;66915.31;4957985;28;790;-86
2021/12/09 07:57:49;;;;;;;;;;;;;;;-142.21;100.00;66915.31;4957860;29;861;-85
2021/12/09 08:00:19;;;;;;;;;;;;;;;-142.21;100.00;66915.31;4971758;28;1283;-85
2021/12/09 08:02:45;;;;;;;;;;;;;;;-142.21;100.00;66915.31;4956038;29;1257;-84
2021/12/09 08:05:12;;;;;;;;;;;;;;;-142.21;100.00;66915.31;4956444;29;1204;-85
2021/12/09 08:07:37;;;;;;;;;;;;;;;-142.21;100.00;66915.31;4971801;28;1200;-84
2021/12/09 08:10:03;;;;;;;;;;;;;;;-142.21;100.00;66915.31;4956980;28;1285;-86
2021/12/09 08:12:29;;;;;;;;;;;;;;;-142.21;100.00;66915.31;4957221;28;1213;-85
2021/12/09 08:14:54;;;;;;;;;;;;;;;-142.21;100.00;66915.31;4975763;28;1962;-86
2021/12/09 08:17:46;;;;;;;;;;;;;;;-142.21;100.00;66915.31;4959191;29;973;-86
2021/12/09 08:20:15;;;;;;;;;;;;;;;-142.21;100.00;66915.31;4960132;28;1373;-85
2021/12/09 08:22:44;;;;;;;;;;;;;;;-142.21;100.00;66915.31;4958974;28;1322;-86
2021/12/09 08:25:12;;;;;;;;;;;;;;;-142.21;100.00;66915.31;4959715;29;1446;-86
2021/12/09 08:27:37;;;;;;;;;;;;;;;-142.21;100.00;66915.31;4959808;29;1229;-86
2021/12/09 08:30:06;;;;;;;;;;;;;;;-142.21;100.00;66915.31;4959502;28;1304;-86
2021/12/09 08:32:31;;;;;;;;;;;;;;;-142.21;100.00;66915.31;4959938;28;1898;-86
2021/12/09 08:34:57;;;;;;;;;;;;;;;-142.21;100.00;66915.31;4960766;28;1075;-86
2021/12/09 08:37:22;;;;;;;;;;;;;;;-142.21;100.00;66915.31;4960206;29;1324;-87
2021/12/09 08:39:47;;;;;;;;;;;;;;;-142.21;100.00;66915.31;4959232;28;1358;-85
2021/12/09 08:42:16;;;;;;;;;;;;;;;-142.21;100.00;66915.31;4958689;29;1308;-86
2021/12/09 08:44:41;;;;;;;;;;;;;;;-142.21;100.00;66915.31;4958723;28;1318;-84
2021/12/09 08:47:07;;;;;;;;;;;;;;;-142.21;100.00;66915.31;4959657;28;1044;-87
2021/12/09 08:49:33;;;;;;;;;;;;;;;-142.21;100.00;66915.31;4958663;28;1263;-86
2021/12/09 08:51:58;;;;;;;;;;;;;;;-142.21;100.00;66915.31;4958931;29;1331;-86
2021/12/09 08:54:23;;;;;;;;;;;;;;;-142.21;100.00;66915.31;4958995;29;1902;-85
2021/12/09 08:56:51;;;;;;;;;;;;;;;-142.21;100.00;66915.31;4974801;28;1112;-86
2021/12/09 08:59:17;;;;;;;;;;;;;;;-142.21;100.00;66915.31;4974893;28;1303;-86
2021/12/09 09:01:42;;;;;;;;;;;;;;;-142.21;100.00;66915.31;4959185;29;1370;-86
2021/12/09 09:04:08;;;;;;;;;;;;;;;-142.21;100.00;66915.31;4975503;28;1211;-86
2021/12/09 09:06:34;;;;;;;;;;;;;;;-142.21;100.00;66915.31;4959823;29;1332;-86
2021/12/09 09:09:00;;;;;;;;;;;;;;;-142.21;100.00;66915.31;4959327;28;1229;-87
2021/12/09 09:11:25;;;;;;;;;;;;;;;-142.21;100.00;66915.31;4959416;29;1312;-85
2021/12/09 09:13:50;;;;;;;;;;;;;;;-142.21;100.00;66915.31;4958776;29;1891;-85
2021/12/09 09:16:15;;;;;;;;;;;;;;;-142.21;100.00;66915.31;4958236;29;1295;-85
2021/12/09 09:18:40;;;;;;;;;;;;;;;-142.21;100.00;66915.31;4958434;29;1137;-86
2021/12/09 09:21:06;;;;;;;;;;;;;;;-142.21;100.00;66915.31;4965870;28;1677;-86
2021/12/09 09:23:31;;;;;;;;;;;;;;;-142.21;100.00;66915.31;4977658;28;1292;-85
2021/12/09 09:25:56;;;;;;;;;;;;;;;-142.21;100.00;66915.31;4978147;28;1279;-85
2021/12/09 09:28:21;;;;;;;;;;;;;;;-142.21;100.00;66915.31;4978270;28;1213;-86
2021/12/09 09:30:56;;;;;;;;;;;;;;;-142.21;100.00;66915.31;4979369;28;1387;-86
2021/12/09 09:33:22;;;;;;;;;;;;;;;-142.21;100.00;66915.31;4978658;28;1894;-86
2021/12/09 09:35:48;;;;;;;;;;;;;;;-142.21;100.00;66915.31;4979199;28;1242;-85
2021/12/09 09:38:14;;;;;;;;;;;;;;;-142.21;100.00;66915.31;4979225;28;1059;-86
2021/12/09 09:40:51;;;;;;;;;;;;;;;-142.21;100.00;66915.31;4978855;28;1268;-86
2021/12/09 09:43:54;;;;;;;;;;;;;;;-142.21;100.00;66915.31;4979500;28;1347;-86
2021/12/09 09:46:19;;;;;;;;;;;;;;;-142.21;100.00;66915.31;4980948;28;1170;-85
2021/12/09 09:48:45;;;;;;;;;;;;;;;-142.21;100.00;66915.31;4980419;28;1004;-85
2021/12/09 09:51:11;;;;;;;;;;;;;;;-142.21;100.00;66915.31;4980384;28;1215;-85
2021/12/09 09:53:37;;;;;;;;;;;;;;;-142.21;100.00;66915.31;4979575;28;1894;-85
2021/12/09 09:56:08;;;;;;;;;;;;;;;-142.21;100.00;66915.31;4981087;28;747;-85
2021/12/09 09:58:33;;;;;;;;;;;;;;;-142.21;100.00;66915.31;4979238;28;1324;-86
2021/12/09 10:00:58;;;;;;;;;;;;;;;-142.21;100.00;66915.31;4981072;28;1299;-86
2021/12/09 10:03:29;;;;;;;;;;;;;;;-142.21;100.00;66915.31;4980502;28;1048;-86
2021/12/09 10:05:57;;;;;;;;;;;;;;;-142.21;100.00;66915.31;4978824;28;1386;-85
2021/12/09 10:08:22;;;;;;;;;;;;;;;-142.21;100.00;66915.31;4978860;28;1232;-85
2021/12/09 10:10:47;;;;;;;;;;;;;;;-142.21;100.00;66915.31;4978650;28;1366;-85
2021/12/09 10:13:13;;;;;;;;;;;;;;;-142.21;100.00;66915.31;4979162;28;1946;-86
2021/12/09 10:15:44;;;;;;;;;;;;;;;-142.21;100.00;66915.31;4978825;28;1208;-86
2021/12/09 10:18:10;;;;;;;;;;;;;;;-142.21;100.00;66915.31;4979932;28;1281;-86
2021/12/09 10:20:50;;;;;;;;;;;;;;;-142.21;100.00;66915.31;4979887;28;1309;-85
2021/12/09 10:23:23;;;;;;;;;;;;;;;-142.21;100.00;66915.31;4978751;28;1212;-86
2021/12/09 10:26:08;;;;;;;;;;;;;;;-142.21;100.00;66915.31;4979730;28;917;-85
2021/12/09 10:28:34;;;;;;;;;;;;;;;-142.21;100.00;66915.31;4979537;28;1377;-85
2021/12/09 10:31:23;;;;;;;;;;;;;;;-142.21;100.00;66915.31;4977958;28;1342;-86
2021/12/09 10:34:14;;;;;;;;;;;;;;;-142.21;100.00;66915.31;4972586;28;1945;-86
2021/12/09 10:36:47;;;;;;;;;;;;;;;-142.21;100.00;66915.31;4977968;28;1318;-85
2021/12/09 10:39:21;;;;;;;;;;;;;;;-142.21;100.00;66915.31;4977071;28;1305;-85
2021/12/09 10:41:47;;;;;;;;;;;;;;;-142.21;100.00;66915.31;4977757;28;1295;-85
2021/12/09 10:44:12;;;;;;;;;;;;;;;-142.21;100.00;66915.31;4978986;28;893;-85
2021/12/09 10:46:47;;;;;;;;;;;;;;;-142.21;100.00;66915.31;4977803;28;1278;-86
2021/12/09 10:49:13;;;;;;;;;;;;;;;-142.21;100.00;66915.31;4976555;28;1418;-85
2021/12/09 10:51:44;;;;;;;;;;;;;;;-142.21;100.00;66915.31;4979041;28;854;-84
2021/12/09 10:54:10;;;;;;;;;;;;;;;-142.21;100.00;66915.31;4977598;28;1898;-86
2021/12/09 10:56:35;;;;;;;;;;;;;;;-142.21;100.00;66915.31;4977601;28;1401;-85
2021/12/09 10:59:00;;;;;;;;;;;;;;;-142.21;100.00;66915.31;4976602;28;1204;-85
2021/12/09 11:01:25;;;;;;;;;;;;;;;-142.21;100.00;66915.31;4979164;28;869;-85
2021/12/09 11:03:54;;;;;;;;;;;;;;;-142.21;100.00;66915.31;4978390;28;1357;-85
2021/12/09 11:06:20;;;;;;;;;;;;;;;-142.21;100.00;66915.31;4977165;28;1426;-86
2021/12/09 11:08:47;;;;;;;;;;;;;;;-142.21;100.00;66915.31;4976542;28;1196;-85
2021/12/09 11:11:16;;;;;;;;;;;;;;;-142.21;100.00;66915.31;4978462;28;1185;-86
2021/12/09 11:13:46;;;;;;;;;;;;;;;-142.21;100.00;66915.31;4977538;28;1950;-85
2021/12/09 11:16:12;;;;;;;;;;;;;;;-142.21;100.00;66915.31;4976277;28;1431;-85
2021/12/09 11:18:41;;;;;;;;;;;;;;;-142.21;100.00;66915.31;4975889;28;1366;-85
2021/12/09 11:21:08;;;;;;;;;;;;;;;-142.21;100.00;66915.31;4975948;28;1327;-85
2021/12/09 11:23:42;;;;;;;;;;;;;;;-142.21;100.00;66915.31;4977214;28;869;-85
2021/12/09 11:26:18;;;;;;;;;;;;;;;-142.21;100.00;66915.31;4975674;28;1192;-85
2021/12/09 11:28:54;;;;;;;;;;;;;;;-142.21;100.00;66915.31;4977308;28;1557;-85
2021/12/09 11:31:19;;;;;;;;;;;;;;;-142.21;100.00;66915.31;4976066;28;1228;-85
2021/12/09 11:33:46;;;;;;;;;;;;;;;-142.21;100.00;66915.31;4975734;28;1906;-86
2021/12/09 11:36:17;;;;;;;;;;;;;;;-142.21;100.00;66915.31;4974702;28;1212;-85
2021/12/09 11:39:06;;;;;;;;;;;;;;;-142.21;100.00;66915.31;4975825;28;1319;-86
2021/12/09 11:41:33;;;;;;;;;;;;;;;-142.21;100.00;66915.31;4992125;28;1271;-84
2021/12/09 11:43:58;;;;;;;;;;;;;;;-142.21;100.00;66915.31;4974893;28;1223;-85
2021/12/09 11:46:24;;;;;;;;;;;;;;;-142.21;100.00;66915.31;4975015;28;1283;-85
2021/12/09 11:48:58;;;;;;;;;;;;;;;-142.21;100.00;66915.31;5025899;23;2419;-89
2021/12/09 11:51:25;;;;;;;;;;;;;;;-142.21;100.00;66915.31;5019313;28;1015;-88
2021/12/09 11:53:55;;;;;;;;;;;;;;;-142.21;100.00;66915.31;5036384;28;1906;-87
2021/12/09 11:56:44;;;;;;;;;;;;;;;-142.21;100.00;66915.31;5037702;28;849;-89
2021/12/09 11:59:26;;;;;;;;;;;;;;;-142.21;100.00;66915.31;5018213;28;908;-90
2021/12/09 12:11:07;;;;;;;;;;;;;;;-142.21;100.00;66915.31;5017969;28;1207;-90
2021/12/09 12:13:34;;;;;;;;;;;;;;;-142.21;100.00;66915.31;5018867;28;1971;-90
2021/12/09 12:16:20;;;;;;;;;;;;;;;-142.21;100.00;66915.31;5018875;28;841;-90
2021/12/09 12:19:30;;;;;;;;;;;;;;;-142.21;100.00;66915.31;5016196;28;1393;-91
2021/12/09 12:21:50;;;;;;;;;;;;;;;-142.21;100.00;66915.31;5014320;28;1103;-90
2021/12/09 12:24:42;;;;;;;;;;;;;;;-142.21;100.00;66915.31;5017075;28;940;-88
2021/12/09 12:27:27;;;;;;;;;;;;;;;-142.21;100.00;66915.31;5016112;28;1267;-88
2021/12/09 12:30:31;;;;;;;;;;;;;;;-142.21;100.00;66915.31;5017107;28;919;-89
2021/12/09 12:38:11;;;;;;;;;;;;;;;-142.21;100.00;66915.31;5017933;28;1315;-88
2021/12/09 12:40:49;;;;;;;;;;;;;;;-142.21;100.00;66915.31;5018048;28;893;-89
2021/12/09 12:43:32;;;;;;;;;;;;;;;-142.21;100.00;66915.31;5018673;28;892;-90
2021/12/09 12:46:17;;;;;;;;;;;;;;;-142.21;100.00;66915.31;5016881;28;1350;-89